Time;durP1;ratioP1;P1;durP2;ratioP2;P2;SDS_P1;SDS_P2;PMS_P1;PMS_P2;Temp;Humidity;BMP_temperature;BMP_pressure;BME280_temperature;BME280_humidity;BME280_pressure;Samples;Min_cycle;Max_cycle;Signal;HPM_P1;HPM_P2
2022/11/01 00:00:40;;;;;;;21.80;10.55;;;9.40;99.90;;;;;;7599024;19;20518;-71
2022/11/01 00:03:12;;;;;;;21.55;10.77;;;9.40;99.90;;;;;;7609730;19;20014;-71
2022/11/01 00:05:45;;;;;;;20.73;10.77;;;9.40;99.90;;;;;;7594357;19;20017;-71
2022/11/01 00:08:17;;;;;;;16.48;9.70;;;9.40;99.90;;;;;;7603851;19;20011;-71
2022/11/01 00:10:49;;;;;;;23.05;10.48;;;9.30;99.90;;;;;;7615041;19;20018;-71
2022/11/01 00:13:21;;;;;;;19.45;10.20;;;9.30;99.90;;;;;;7608436;19;20854;-71
2022/11/01 00:15:53;;;;;;;19.77;10.73;;;9.30;99.90;;;;;;7606222;19;20041;-71
2022/11/01 00:18:25;;;;;;;19.33;9.65;;;9.20;99.90;;;;;;7608260;19;20018;-71
2022/11/01 00:20:58;;;;;;;17.95;9.90;;;9.20;99.90;;;;;;7602675;19;20014;-71
2022/11/01 00:23:30;;;;;;;25.92;10.82;;;9.30;99.90;;;;;;7614538;19;20561;-71
2022/11/01 00:26:02;;;;;;;23.70;13.07;;;9.10;99.90;;;;;;7602011;19;20019;-71
2022/11/01 00:28:35;;;;;;;34.60;14.80;;;9.00;99.90;;;;;;7597310;19;20765;-71
2022/11/01 00:31:07;;;;;;;23.08;13.45;;;9.00;99.90;;;;;;7602556;19;20025;-71
2022/11/01 00:33:44;;;;;;;20.75;13.20;;;9.10;99.90;;;;;;7587228;19;20933;-71
2022/11/01 00:36:16;;;;;;;22.55;12.68;;;9.10;99.90;;;;;;7592908;19;20023;-71
2022/11/01 00:38:51;;;;;;;22.60;13.23;;;9.10;99.90;;;;;;7603862;19;20043;-71
2022/11/01 00:41:23;;;;;;;23.30;12.40;;;9.10;99.90;;;;;;7611867;19;20011;-71
2022/11/01 00:43:55;;;;;;;24.90;10.98;;;9.20;99.90;;;;;;7598861;19;20022;-71
2022/11/01 00:46:28;;;;;;;18.95;11.18;;;9.20;99.90;;;;;;7596560;19;20015;-71
2022/11/01 00:49:00;;;;;;;22.00;11.38;;;9.20;99.90;;;;;;7602148;19;20018;-71
2022/11/01 00:51:32;;;;;;;22.77;10.63;;;9.20;99.90;;;;;;7605002;19;20022;-70
2022/11/01 00:54:04;;;;;;;22.63;11.07;;;9.10;99.90;;;;;;7599802;19;20010;-70
2022/11/01 00:56:36;;;;;;;16.25;11.18;;;9.10;99.90;;;;;;7604341;19;20018;-71
2022/11/01 00:59:08;;;;;;;21.15;10.52;;;9.10;99.90;;;;;;7614344;19;20018;-71
2022/11/01 01:01:40;;;;;;;17.40;9.23;;;9.00;99.90;;;;;;7619873;19;20014;-71
2022/11/01 01:04:13;;;;;;;18.33;10.00;;;9.00;99.90;;;;;;7591165;19;20061;-71
2022/11/01 01:06:45;;;;;;;22.08;10.05;;;9.00;99.90;;;;;;7601780;19;20492;-71
2022/11/01 01:09:17;;;;;;;18.67;9.93;;;9.00;99.90;;;;;;7603992;19;21160;-71
2022/11/01 01:11:48;;;;;;;20.05;9.60;;;9.00;99.90;;;;;;7604081;19;20838;-71
2022/11/01 01:14:20;;;;;;;14.75;9.85;;;9.10;99.90;;;;;;7600465;19;20018;-71
2022/11/01 01:16:53;;;;;;;16.88;8.77;;;9.10;99.90;;;;;;7617133;19;20109;-71
2022/11/01 01:19:25;;;;;;;20.50;9.60;;;9.20;99.90;;;;;;7601726;19;20320;-71
2022/11/01 01:21:57;;;;;;;18.85;8.85;;;9.20;99.90;;;;;;7606320;19;20018;-71
2022/11/01 01:24:31;;;;;;;21.08;8.98;;;9.20;99.90;;;;;;7601752;19;20086;-71
2022/11/01 01:27:03;;;;;;;12.57;8.07;;;9.20;99.90;;;;;;7603744;19;20583;-71
2022/11/01 01:29:36;;;;;;;19.92;9.48;;;9.10;99.90;;;;;;7616915;19;20021;-71
2022/11/01 01:32:15;;;;;;;16.42;8.60;;;9.10;99.90;;;;;;7614778;19;20022;-71
2022/11/01 01:34:48;;;;;;;24.35;9.30;;;9.00;99.90;;;;;;7602332;19;20019;-71
2022/11/01 01:37:20;;;;;;;16.83;8.97;;;9.00;99.90;;;;;;7602627;19;20674;-71
2022/11/01 01:39:52;;;;;;;15.27;8.90;;;8.90;99.90;;;;;;7616003;19;20047;-71
2022/11/01 01:42:39;;;;;;;14.70;8.60;;;8.90;99.90;;;;;;7618500;19;20018;-71
2022/11/01 01:45:14;;;;;;;15.68;8.75;;;8.90;99.90;;;;;;7599714;19;20014;-71
2022/11/01 01:47:50;;;;;;;15.75;8.13;;;8.90;99.90;;;;;;7598853;19;20493;-71
2022/11/01 01:50:33;;;;;;;18.90;8.45;;;8.90;99.90;;;;;;7606022;19;20014;-71
2022/11/01 01:53:08;;;;;;;13.20;8.00;;;9.00;99.90;;;;;;7604261;19;20026;-71
2022/11/01 01:56:02;;;;;;;10.77;6.55;;;8.90;99.90;;;;;;7607277;19;20018;-71
2022/11/01 01:58:38;;;;;;;15.23;6.60;;;9.00;99.90;;;;;;7620201;19;20025;-71
2022/11/01 02:01:10;;;;;;;16.85;6.85;;;9.10;99.90;;;;;;7602467;19;20777;-71
2022/11/01 02:03:43;;;;;;;12.45;6.90;;;9.10;99.90;;;;;;7600849;19;20014;-71
2022/11/01 02:06:18;;;;;;;12.03;6.47;;;9.10;99.90;;;;;;7615465;19;21358;-71
2022/11/01 02:08:56;;;;;;;13.73;7.25;;;9.10;99.90;;;;;;7616046;19;20010;-71
2022/11/01 02:11:29;;;;;;;13.20;5.78;;;9.10;99.90;;;;;;7610981;19;20022;-71
2022/11/01 02:14:01;;;;;;;11.82;6.30;;;9.00;99.90;;;;;;7591067;19;20045;-71
2022/11/01 02:16:57;;;;;;;14.83;6.17;;;9.00;99.90;;;;;;7613448;19;20192;-71
2022/11/01 02:20:00;;;;;;;13.25;6.43;;;9.00;99.90;;;;;;7617594;19;20585;-71
2022/11/01 02:22:54;;;;;;;22.67;7.10;;;9.00;99.90;;;;;;7617541;19;20014;-71
2022/11/01 02:25:44;;;;;;;10.13;5.38;;;9.00;99.90;;;;;;7603442;19;20014;-71
2022/11/01 02:28:46;;;;;;;10.63;5.53;;;9.10;99.90;;;;;;7605062;19;20018;-71
2022/11/01 02:31:56;;;;;;;15.05;5.93;;;9.00;99.90;;;;;;7611785;19;20614;-71
2022/11/01 02:34:37;;;;;;;11.07;5.93;;;9.10;99.90;;;;;;7603117;19;20627;-71
2022/11/01 02:37:22;;;;;;;8.73;5.32;;;9.10;99.90;;;;;;7597539;19;20029;-71
2022/11/01 02:40:04;;;;;;;13.90;5.30;;;9.10;99.90;;;;;;7601504;19;20415;-71
2022/11/01 02:42:43;;;;;;;14.52;6.30;;;9.00;99.90;;;;;;7595603;19;20328;-70
2022/11/01 02:45:28;;;;;;;10.35;4.95;;;9.00;99.90;;;;;;7591821;19;20604;-71
2022/11/01 02:48:01;;;;;;;11.57;6.00;;;8.90;99.90;;;;;;7608141;19;20021;-71
2022/11/01 02:50:42;;;;;;;11.25;5.63;;;8.90;99.90;;;;;;7613820;19;20130;-71
2022/11/01 02:53:14;;;;;;;16.60;5.65;;;8.90;99.90;;;;;;7605679;19;20002;-71
2022/11/01 02:55:46;;;;;;;13.35;5.70;;;8.90;99.90;;;;;;7606822;19;20022;-71
2022/11/01 02:58:26;;;;;;;12.80;4.72;;;8.90;99.90;;;;;;7615624;19;20409;-71
2022/11/01 03:00:58;;;;;;;12.95;5.53;;;8.90;99.90;;;;;;7609565;19;20006;-71
2022/11/01 03:03:34;;;;;;;16.10;6.15;;;8.80;99.90;;;;;;7603959;19;20011;-71
2022/11/01 03:06:14;;;;;;;10.43;4.55;;;8.80;99.90;;;;;;7595493;19;20018;-71
2022/11/01 03:08:56;;;;;;;14.57;5.20;;;8.80;99.90;;;;;;7605747;19;20789;-71
2022/11/01 03:11:59;;;;;;;9.95;5.50;;;8.90;99.90;;;;;;7599609;19;20014;-71
2022/11/01 03:14:53;;;;;;;8.95;4.63;;;9.00;99.90;;;;;;7602593;19;20015;-71
2022/11/01 03:17:42;;;;;;;11.40;5.22;;;9.00;99.90;;;;;;7601441;19;20053;-71
2022/11/01 03:20:19;;;;;;;15.02;5.28;;;9.00;99.90;;;;;;7598961;19;20014;-71
2022/11/01 03:23:01;;;;;;;10.40;5.40;;;9.10;99.90;;;;;;7601948;19;20022;-71
2022/11/01 03:25:43;;;;;;;9.85;4.85;;;9.00;99.90;;;;;;7599539;19;21107;-72
2022/11/01 03:28:48;;;;;;;14.32;4.85;;;9.00;99.90;;;;;;7606944;19;20959;-71
2022/11/01 03:31:26;;;;;;;11.75;4.70;;;9.10;99.90;;;;;;7608574;19;20006;-71
2022/11/01 03:34:19;;;;;;;10.25;4.97;;;9.00;99.90;;;;;;7613236;19;20015;-71
2022/11/01 03:36:56;;;;;;;8.32;4.50;;;9.00;99.90;;;;;;7611342;19;20026;-71
2022/11/01 03:39:44;;;;;;;8.25;4.72;;;8.90;99.90;;;;;;7596346;19;20057;-71
2022/11/01 03:42:20;;;;;;;12.90;5.15;;;8.70;99.90;;;;;;7615992;19;21159;-71
2022/11/01 03:44:58;;;;;;;10.63;5.03;;;8.70;99.90;;;;;;7598326;19;20037;-70
2022/11/01 03:47:30;;;;;;;14.50;4.68;;;8.70;99.90;;;;;;7601523;19;20014;-70
2022/11/01 03:50:23;;;;;;;12.30;5.65;;;8.70;99.90;;;;;;7595838;19;20025;-71
2022/11/01 03:52:56;;;;;;;13.97;5.10;;;8.60;99.90;;;;;;7597468;19;20010;-70
2022/11/01 03:55:28;;;;;;;12.75;5.90;;;8.60;99.90;;;;;;7597361;19;20026;-70
2022/11/01 03:58:00;;;;;;;10.18;5.63;;;8.60;99.90;;;;;;7597299;19;20042;-70
2022/11/01 04:00:36;;;;;;;8.35;4.90;;;8.60;99.90;;;;;;7602637;19;20014;-70
2022/11/01 04:03:10;;;;;;;12.70;5.20;;;8.60;99.90;;;;;;7595914;19;20021;-70
2022/11/01 04:05:42;;;;;;;14.25;4.68;;;8.60;99.90;;;;;;7591895;19;20014;-70
2022/11/01 04:08:14;;;;;;;8.75;4.68;;;8.60;99.90;;;;;;7602242;19;20015;-70
2022/11/01 04:10:47;;;;;;;13.32;5.50;;;8.50;99.90;;;;;;7601449;19;20118;-70
2022/11/01 04:13:19;;;;;;;8.35;4.70;;;8.50;99.90;;;;;;7605752;19;20034;-70
2022/11/01 04:21:32;;;;;;;9.63;4.63;;;8.60;99.90;;;;;;7604316;19;20106;-70
2022/11/01 04:24:04;;;;;;;10.40;4.10;;;8.50;99.90;;;;;;7590378;19;20015;-70
2022/11/01 04:26:36;;;;;;;7.15;4.38;;;8.50;99.90;;;;;;7601915;19;20367;-70
2022/11/01 04:29:08;;;;;;;11.57;5.22;;;8.60;99.90;;;;;;7601667;19;20018;-70
2022/11/01 04:31:40;;;;;;;9.80;4.40;;;8.50;99.90;;;;;;7597322;19;20038;-70
2022/11/01 04:34:12;;;;;;;11.52;4.50;;;8.50;99.90;;;;;;7594065;19;20508;-70
2022/11/01 04:36:44;;;;;;;10.77;4.85;;;8.40;99.90;;;;;;7594141;19;20019;-70
2022/11/01 04:39:16;;;;;;;9.38;4.80;;;8.40;99.90;;;;;;7601069;19;20731;-70
2022/11/01 04:41:48;;;;;;;7.55;4.63;;;8.40;99.90;;;;;;7599060;19;20347;-70
2022/11/01 04:44:20;;;;;;;12.75;4.55;;;8.40;99.90;;;;;;7590611;19;20529;-70
2022/11/01 04:46:52;;;;;;;7.78;4.60;;;8.40;99.90;;;;;;7609678;19;20030;-70
2022/11/01 04:49:24;;;;;;;13.73;4.28;;;8.30;99.90;;;;;;7610033;19;21113;-70
2022/11/01 04:51:56;;;;;;;13.10;4.90;;;8.40;99.90;;;;;;7614506;19;20700;-70
2022/11/01 04:54:32;;;;;;;12.45;4.72;;;8.30;99.90;;;;;;7600744;19;20045;-70
2022/11/01 04:57:04;;;;;;;11.32;4.40;;;8.30;99.90;;;;;;7598496;19;20026;-70
2022/11/01 04:59:36;;;;;;;7.30;4.43;;;8.30;99.90;;;;;;7597737;19;20026;-70
2022/11/01 05:02:08;;;;;;;10.70;4.60;;;8.30;99.90;;;;;;7590611;19;20014;-70
2022/11/01 05:04:40;;;;;;;11.15;4.97;;;8.30;99.90;;;;;;7597332;19;20026;-70
2022/11/01 05:07:13;;;;;;;15.70;4.65;;;8.20;99.90;;;;;;7607075;19;20015;-70
2022/11/01 05:09:45;;;;;;;11.80;4.20;;;8.20;99.90;;;;;;7606871;19;20015;-70
2022/11/01 05:12:18;;;;;;;10.82;3.92;;;8.20;99.90;;;;;;7609131;19;20010;-70
2022/11/01 05:14:50;;;;;;;12.00;4.85;;;8.30;99.90;;;;;;7606335;19;20007;-70
2022/11/01 05:17:27;;;;;;;9.73;4.25;;;8.20;99.90;;;;;;7611630;19;20015;-70
2022/11/01 05:19:59;;;;;;;14.40;4.55;;;8.20;99.90;;;;;;7607083;19;20018;-70
2022/11/01 05:22:31;;;;;;;10.30;4.80;;;8.20;99.90;;;;;;7592670;19;20104;-70
2022/11/01 05:25:04;;;;;;;10.68;4.13;;;8.20;99.90;;;;;;7600172;19;20014;-70
2022/11/01 05:27:37;;;;;;;9.60;4.40;;;8.20;99.90;;;;;;7599083;19;20021;-70
2022/11/01 05:30:10;;;;;;;11.60;4.60;;;8.20;99.90;;;;;;7594838;19;20018;-70
2022/11/01 05:32:41;;;;;;;12.55;4.13;;;8.10;99.90;;;;;;7592443;19;20487;-70
2022/11/01 05:35:13;;;;;;;9.90;4.35;;;8.10;99.90;;;;;;7598707;19;20010;-70
2022/11/01 05:37:46;;;;;;;8.65;4.05;;;8.20;99.90;;;;;;7601437;19;20007;-70
2022/11/01 05:40:19;;;;;;;10.48;4.22;;;8.10;99.90;;;;;;7608066;19;20006;-70
2022/11/01 05:42:51;;;;;;;14.27;4.65;;;8.10;99.90;;;;;;7606036;19;20027;-70
2022/11/01 05:45:23;;;;;;;10.38;4.63;;;8.10;99.90;;;;;;7596149;19;20025;-70
2022/11/01 05:48:02;;;;;;;15.13;4.18;;;8.20;99.90;;;;;;7606724;19;20017;-70
2022/11/01 05:50:34;;;;;;;11.10;4.72;;;8.20;99.90;;;;;;7588825;19;20014;-72
2022/11/01 05:53:07;;;;;;;10.30;4.47;;;8.10;99.90;;;;;;7588113;19;20019;-72
2022/11/01 05:55:39;;;;;;;12.20;5.03;;;8.10;99.90;;;;;;7592039;19;20501;-70
2022/11/01 05:58:11;;;;;;;11.15;4.97;;;8.10;99.90;;;;;;7603251;19;20015;-70
2022/11/01 06:00:43;;;;;;;8.90;5.05;;;8.00;99.90;;;;;;7604120;19;20018;-70
2022/11/01 06:03:15;;;;;;;7.80;4.00;;;8.00;99.90;;;;;;7606790;19;20505;-70
2022/11/01 06:05:48;;;;;;;15.70;4.60;;;8.20;99.90;;;;;;7610598;19;20020;-70
2022/11/01 06:08:20;;;;;;;10.35;3.92;;;8.20;99.90;;;;;;7594306;19;20026;-70
2022/11/01 06:10:52;;;;;;;9.25;4.32;;;8.30;99.90;;;;;;7602793;19;20022;-70
2022/11/01 06:13:24;;;;;;;7.88;4.28;;;8.20;99.90;;;;;;7607913;19;20018;-70
2022/11/01 06:16:01;;;;;;;6.80;4.50;;;8.30;99.90;;;;;;7613607;19;20036;-70
2022/11/01 06:18:33;;;;;;;12.40;4.70;;;8.30;99.90;;;;;;7607634;19;20022;-70
2022/11/01 06:21:05;;;;;;;11.30;4.65;;;8.30;99.90;;;;;;7613432;19;20014;-70
2022/11/01 06:23:37;;;;;;;14.10;4.70;;;8.40;99.90;;;;;;7602626;19;20490;-70
2022/11/01 06:26:09;;;;;;;12.00;4.68;;;8.50;99.90;;;;;;7607807;19;20021;-70
2022/11/01 06:28:41;;;;;;;8.48;4.60;;;8.50;99.90;;;;;;7596328;19;20015;-70
2022/11/01 06:31:13;;;;;;;9.88;4.95;;;8.50;99.90;;;;;;7577371;19;20015;-71
2022/11/01 06:33:48;;;;;;;9.88;4.65;;;8.50;99.90;;;;;;7590223;19;20014;-71
2022/11/01 06:36:23;;;;;;;7.40;4.18;;;8.50;99.90;;;;;;7601284;19;20026;-70
2022/11/01 06:38:55;;;;;;;7.00;4.68;;;8.60;99.90;;;;;;7612474;19;20006;-70
2022/11/01 06:41:27;;;;;;;11.60;4.30;;;8.60;99.90;;;;;;7591037;19;20462;-71
2022/11/01 06:43:59;;;;;;;19.23;5.03;;;8.60;99.90;;;;;;7595611;19;20022;-70
2022/11/01 06:46:32;;;;;;;10.82;4.78;;;8.70;99.90;;;;;;7581054;19;20026;-71
2022/11/01 06:49:04;;;;;;;9.30;4.68;;;8.70;99.90;;;;;;7568981;19;20094;-71
2022/11/01 06:51:36;;;;;;;7.57;4.70;;;8.80;99.90;;;;;;7551264;19;20090;-70
2022/11/01 06:54:08;;;;;;;12.05;4.95;;;8.80;99.90;;;;;;7582545;19;20038;-70
2022/11/01 06:56:40;;;;;;;12.07;5.25;;;8.80;99.90;;;;;;7562309;19;20012;-71
2022/11/01 06:59:15;;;;;;;13.32;5.45;;;8.80;99.90;;;;;;7540782;19;20593;-71
2022/11/01 07:01:47;;;;;;;8.82;5.15;;;8.90;99.90;;;;;;7573314;19;20546;-71
2022/11/01 07:04:20;;;;;;;10.05;5.75;;;8.90;99.90;;;;;;7564847;19;20013;-71
2022/11/01 07:06:52;;;;;;;15.15;5.78;;;9.00;99.90;;;;;;7565687;19;20942;-71
2022/11/01 07:09:24;;;;;;;11.50;6.32;;;9.10;99.90;;;;;;7575169;19;20006;-71
2022/11/01 07:11:56;;;;;;;12.73;6.22;;;9.20;99.90;;;;;;7576918;19;20022;-71
2022/11/01 07:14:29;;;;;;;13.50;6.38;;;9.30;99.90;;;;;;7555377;19;20018;-71
2022/11/01 07:17:02;;;;;;;12.35;6.30;;;9.40;99.90;;;;;;7575343;19;20014;-71
2022/11/01 07:19:34;;;;;;;15.85;5.32;;;9.50;99.90;;;;;;7588611;19;20015;-71
2022/11/01 07:22:07;;;;;;;9.13;5.60;;;9.60;99.90;;;;;;7546925;19;21094;-70
2022/11/01 07:24:39;;;;;;;11.70;6.18;;;9.80;99.90;;;;;;7541687;19;20017;-70
2022/11/01 07:27:12;;;;;;;10.27;6.17;;;9.90;99.90;;;;;;7523886;19;20010;-71
2022/11/01 07:29:52;;;;;;;14.05;6.32;;;10.00;99.90;;;;;;7549429;19;20014;-70
2022/11/01 07:32:24;;;;;;;9.67;6.07;;;10.10;99.90;;;;;;7538073;19;20013;-71
2022/11/01 07:34:56;;;;;;;16.25;5.60;;;10.30;99.90;;;;;;7531406;19;20085;-70
2022/11/01 07:37:29;;;;;;;11.23;5.20;;;10.50;99.90;;;;;;7543447;19;20010;-70
2022/11/01 07:40:04;;;;;;;14.98;7.18;;;10.60;99.90;;;;;;7540216;19;20015;-71
2022/11/01 07:42:41;;;;;;;13.52;7.15;;;10.80;99.90;;;;;;7541190;19;20655;-71
2022/11/01 07:45:14;;;;;;;12.90;6.30;;;11.00;99.90;;;;;;7542237;19;20010;-71
2022/11/01 07:47:46;;;;;;;9.73;5.33;;;11.10;99.90;;;;;;7528121;19;20025;-71
2022/11/01 07:50:19;;;;;;;11.23;6.05;;;11.10;99.90;;;;;;7558661;19;20037;-71
2022/11/01 07:53:01;;;;;;;9.43;5.47;;;11.20;99.90;;;;;;7591389;19;20020;-71
2022/11/01 07:55:34;;;;;;;14.43;5.72;;;11.30;99.90;;;;;;7585437;19;20011;-70
2022/11/01 07:58:07;;;;;;;11.68;5.32;;;11.30;99.90;;;;;;7554728;19;20014;-71
2022/11/01 08:00:40;;;;;;;20.02;5.90;;;11.30;99.90;;;;;;7600240;19;20018;-70
2022/11/01 08:03:15;;;;;;;10.33;5.17;;;11.40;99.90;;;;;;7597839;19;20022;-72
2022/11/01 08:05:47;;;;;;;14.68;5.50;;;11.40;99.90;;;;;;7597219;19;20676;-71
2022/11/01 08:08:19;;;;;;;12.70;5.53;;;11.50;99.90;;;;;;7605500;19;20026;-71
2022/11/01 08:10:51;;;;;;;13.00;5.45;;;11.60;99.90;;;;;;7600219;19;20374;-71
2022/11/01 08:13:24;;;;;;;13.82;4.88;;;11.70;99.90;;;;;;7587938;19;20017;-71
2022/11/01 08:15:59;;;;;;;11.18;4.30;;;11.90;99.90;;;;;;7595663;19;20018;-71
2022/11/01 08:18:32;;;;;;;13.30;5.07;;;12.10;99.90;;;;;;7604839;19;20006;-71
2022/11/01 08:21:04;;;;;;;14.93;5.65;;;12.40;99.90;;;;;;7597426;19;20018;-71
2022/11/01 08:23:36;;;;;;;13.68;5.30;;;12.60;99.90;;;;;;7610554;19;20014;-72
2022/11/01 08:26:08;;;;;;;10.88;5.32;;;13.00;99.90;;;;;;7609535;19;20037;-71
2022/11/01 08:28:40;;;;;;;9.63;5.13;;;13.30;99.90;;;;;;7587132;19;20030;-71
2022/11/01 08:31:12;;;;;;;14.43;5.95;;;13.50;99.90;;;;;;7595400;19;20057;-72
2022/11/01 08:33:45;;;;;;;18.35;6.60;;;13.60;99.90;;;;;;7595150;19;21232;-71
2022/11/01 08:36:17;;;;;;;13.25;6.38;;;13.70;99.90;;;;;;7596338;19;20095;-71
2022/11/01 08:38:49;;;;;;;16.83;5.60;;;13.80;99.90;;;;;;7607894;19;20929;-71
2022/11/01 08:41:22;;;;;;;14.10;4.70;;;13.90;99.90;;;;;;7608442;19;21061;-71
2022/11/01 08:43:56;;;;;;;14.45;5.80;;;14.10;99.90;;;;;;7611791;19;20366;-71
2022/11/01 08:46:28;;;;;;;11.45;4.75;;;14.20;99.90;;;;;;7594307;19;20525;-71
2022/11/01 08:49:00;;;;;;;17.77;5.35;;;14.30;99.90;;;;;;7611209;19;20607;-72
2022/11/01 08:51:33;;;;;;;17.52;5.88;;;14.40;99.90;;;;;;7594961;19;20943;-71
2022/11/01 08:54:08;;;;;;;12.73;5.40;;;14.50;99.90;;;;;;7593783;19;20688;-71
2022/11/01 08:56:40;;;;;;;16.70;5.22;;;14.50;99.90;;;;;;7606500;19;21024;-72
2022/11/01 08:59:12;;;;;;;15.07;5.63;;;14.50;99.90;;;;;;7589147;19;20011;-72
2022/11/01 09:01:45;;;;;;;14.50;6.70;;;14.50;99.90;;;;;;7587128;19;20613;-71
2022/11/01 09:04:17;;;;;;;11.65;5.18;;;14.50;99.90;;;;;;7611550;19;20022;-72
2022/11/01 09:06:49;;;;;;;20.35;6.28;;;14.60;99.90;;;;;;7604279;19;20334;-71
2022/11/01 09:09:21;;;;;;;15.85;6.60;;;14.70;99.90;;;;;;7612879;19;20037;-72
2022/11/01 09:11:53;;;;;;;14.75;6.13;;;14.80;99.90;;;;;;7605729;19;20132;-71
2022/11/01 09:14:26;;;;;;;26.98;7.03;;;14.80;99.90;;;;;;7601651;19;20603;-72
2022/11/01 09:16:58;;;;;;;13.45;5.78;;;14.90;99.90;;;;;;7613592;19;20026;-71
2022/11/01 09:19:30;;;;;;;13.82;5.85;;;14.90;99.90;;;;;;7607192;19;20006;-72
2022/11/01 09:22:02;;;;;;;18.08;5.43;;;15.00;99.90;;;;;;7594841;19;20018;-71
2022/11/01 09:24:35;;;;;;;17.85;5.45;;;15.00;99.90;;;;;;7610038;19;20025;-72
2022/11/01 09:27:10;;;;;;;13.63;5.80;;;15.00;99.90;;;;;;7617768;19;20483;-72
2022/11/01 09:29:42;;;;;;;15.27;5.72;;;15.00;99.90;;;;;;7601654;19;20018;-72
2022/11/01 09:32:20;;;;;;;15.23;5.60;;;15.00;99.90;;;;;;7608755;19;20022;-72
2022/11/01 09:34:52;;;;;;;14.85;6.00;;;15.00;99.90;;;;;;7617307;19;20025;-71
2022/11/01 09:37:24;;;;;;;25.10;6.32;;;15.10;99.90;;;;;;7615080;19;20022;-72
2022/11/01 09:39:56;;;;;;;13.95;6.38;;;15.10;99.90;;;;;;7602500;19;20041;-72
2022/11/01 09:42:40;;;;;;;8.50;4.65;;;15.20;99.90;;;;;;7618988;19;20022;-71
2022/11/01 09:45:18;;;;;;;12.20;5.00;;;15.20;99.90;;;;;;7598125;19;20608;-72
2022/11/01 09:47:53;;;;;;;12.75;5.38;;;15.30;99.90;;;;;;7620401;19;20633;-72
2022/11/01 09:50:29;;;;;;;16.20;6.65;;;15.30;99.90;;;;;;7610147;19;22560;-72
2022/11/01 09:53:06;;;;;;;16.33;5.70;;;15.40;99.90;;;;;;7613833;19;20054;-71
2022/11/01 09:55:54;;;;;;;11.93;4.90;;;15.60;99.90;;;;;;7602447;19;20547;-72
2022/11/01 09:58:41;;;;;;;9.77;4.63;;;15.70;99.90;;;;;;7599992;19;21349;-71
2022/11/01 10:01:28;;;;;;;10.85;4.75;;;15.90;99.90;;;;;;7609367;19;20369;-72
2022/11/01 10:04:20;;;;;;;12.57;4.20;;;16.00;99.90;;;;;;7607015;19;20038;-71
2022/11/01 10:07:05;;;;;;;12.82;5.35;;;16.10;99.90;;;;;;7611925;19;20376;-72
2022/11/01 10:10:02;;;;;;;17.23;4.70;;;16.20;99.70;;;;;;7611657;19;20046;-71
2022/11/01 10:13:12;;;;;;;17.73;4.25;;;16.40;98.80;;;;;;7612920;19;20030;-71
2022/11/01 10:16:08;;;;;;;11.63;5.13;;;16.50;97.00;;;;;;7607468;19;20014;-72
2022/11/01 10:19:04;;;;;;;12.50;4.18;;;16.50;96.50;;;;;;7616434;19;20558;-71
2022/11/01 10:21:49;;;;;;;11.40;4.40;;;16.60;95.90;;;;;;7606333;19;20993;-72
2022/11/01 10:24:27;;;;;;;11.15;3.58;;;16.60;96.10;;;;;;7602006;19;20620;-71
2022/11/01 10:27:24;;;;;;;10.57;4.20;;;16.60;95.90;;;;;;7607685;19;20014;-71
2022/11/01 10:30:03;;;;;;;11.88;4.25;;;16.60;96.30;;;;;;7610218;19;20015;-71
2022/11/01 10:32:56;;;;;;;11.68;4.20;;;16.70;96.80;;;;;;7614039;19;21014;-72
2022/11/01 10:35:36;;;;;;;12.47;5.07;;;16.80;96.50;;;;;;7608751;19;20026;-71
2022/11/01 10:38:33;;;;;;;11.18;4.75;;;16.90;97.10;;;;;;7613091;19;20014;-71
2022/11/01 10:41:41;;;;;;;13.63;4.65;;;17.00;96.40;;;;;;7598865;19;20018;-72
2022/11/01 10:44:24;;;;;;;10.88;3.97;;;17.10;95.80;;;;;;7591617;19;20085;-71
2022/11/01 10:46:59;;;;;;;12.73;4.30;;;17.20;95.30;;;;;;7613978;19;20375;-72
2022/11/01 10:49:40;;;;;;;11.90;4.18;;;17.20;94.30;;;;;;7617438;19;20018;-71
2022/11/01 10:53:00;;;;;;;13.35;4.13;;;17.20;94.70;;;;;;7607846;19;20011;-72
2022/11/01 10:55:44;;;;;;;10.65;5.03;;;17.30;94.60;;;;;;7605777;19;20014;-72
2022/11/01 10:58:39;;;;;;;9.18;3.72;;;17.40;93.90;;;;;;7608882;19;20009;-71
2022/11/01 11:01:21;;;;;;;13.60;4.03;;;17.50;94.90;;;;;;7611085;19;20014;-72
2022/11/01 11:04:00;;;;;;;12.02;4.57;;;17.50;93.90;;;;;;7615828;19;20958;-71
2022/11/01 11:06:33;;;;;;;17.80;4.10;;;17.60;93.30;;;;;;7612884;19;20017;-72
2022/11/01 11:09:06;;;;;;;;;;;17.60;93.40;;;;;;7601626;19;20029;-72
2022/11/01 11:11:40;;;;;;;11.55;4.05;;;17.70;93.20;;;;;;7603360;19;20262;-72
2022/11/01 11:14:13;;;;;;;9.10;4.85;;;17.80;93.30;;;;;;7595691;19;21363;-72
2022/11/01 11:16:55;;;;;;;13.85;4.93;;;17.80;93.00;;;;;;7592561;19;20048;-72
2022/11/01 11:19:37;;;;;;;8.50;4.43;;;17.70;92.40;;;;;;7602728;19;20110;-71
2022/11/01 11:22:11;;;;;;;9.75;4.05;;;17.70;92.80;;;;;;7597965;19;20014;-72
2022/11/01 11:24:44;;;;;;;8.55;3.60;;;17.80;93.00;;;;;;7602577;19;20018;-71
2022/11/01 11:27:22;;;;;;;10.73;4.27;;;17.70;92.40;;;;;;7595196;19;20025;-72
2022/11/01 11:29:59;;;;;;;9.50;3.95;;;17.70;92.20;;;;;;7592260;19;20758;-72
2022/11/01 11:32:33;;;;;;;9.70;3.50;;;17.80;92.00;;;;;;7596604;19;20017;-72
2022/11/01 11:35:19;;;;;;;8.52;3.30;;;17.90;91.90;;;;;;7596213;19;20129;-72
2022/11/01 11:38:01;;;;;;;10.05;3.97;;;17.90;91.50;;;;;;7598297;19;20022;-72
2022/11/01 11:40:40;;;;;;;10.13;3.20;;;17.90;91.50;;;;;;7606704;19;20061;-72
2022/11/01 11:43:23;;;;;;;17.98;3.88;;;17.90;92.00;;;;;;7610759;19;20023;-72
2022/11/01 11:46:19;;;;;;;6.47;3.10;;;18.00;91.40;;;;;;7612552;19;20018;-72
2022/11/01 11:48:59;;;;;;;16.70;3.83;;;18.10;91.70;;;;;;7607358;19;20271;-72
2022/11/01 11:51:36;;;;;;;9.48;2.95;;;18.20;91.50;;;;;;7597833;19;20014;-72
2022/11/01 11:54:36;;;;;;;10.68;3.30;;;18.40;90.50;;;;;;7591560;19;20019;-71
2022/11/01 11:57:18;;;;;;;6.40;2.80;;;18.50;90.30;;;;;;7592413;19;20015;-71
2022/11/01 12:00:19;;;;;;;5.50;2.38;;;18.60;90.70;;;;;;7599032;19;20109;-71
2022/11/01 12:02:51;;;;;;;5.13;2.28;;;18.50;86.60;;;;;;7597856;19;20022;-72
2022/11/01 12:05:27;;;;;;;7.75;2.20;;;18.50;85.90;;;;;;7598399;19;20415;-72
2022/11/01 12:07:59;;;;;;;8.27;2.42;;;18.50;86.70;;;;;;7598558;19;20018;-72
2022/11/01 12:10:44;;;;;;;5.00;2.50;;;18.50;84.30;;;;;;7592186;19;20105;-71
2022/11/01 12:13:30;;;;;;;8.70;2.50;;;18.50;86.20;;;;;;7601917;19;21370;-72
2022/11/01 12:16:13;;;;;;;5.07;2.45;;;18.50;86.20;;;;;;7601186;19;20025;-71
2022/11/01 12:18:51;;;;;;;5.35;2.20;;;18.40;87.30;;;;;;7610950;19;20092;-71
2022/11/01 12:21:35;;;;;;;4.60;2.28;;;18.50;84.90;;;;;;7599646;19;20021;-71
2022/11/01 12:24:40;;;;;;;6.25;2.58;;;18.60;84.40;;;;;;7608366;19;20018;-71
2022/11/01 12:27:17;;;;;;;4.65;2.20;;;18.80;84.80;;;;;;7599603;19;20378;-72
2022/11/01 12:30:01;;;;;;;5.57;2.20;;;18.90;84.60;;;;;;7596194;19;20035;-72
2022/11/01 12:32:49;;;;;;;5.43;2.10;;;18.80;83.40;;;;;;7595034;19;20022;-71
2022/11/01 12:35:46;;;;;;;7.50;2.00;;;18.70;82.70;;;;;;7592842;19;20638;-72
2022/11/01 12:38:40;;;;;;;6.18;2.25;;;18.50;84.00;;;;;;7600533;19;20017;-72
2022/11/01 12:41:15;;;;;;;4.65;2.17;;;18.40;83.90;;;;;;7600262;19;20081;-72
2022/11/01 12:43:56;;;;;;;5.40;2.10;;;18.40;85.20;;;;;;7608906;19;20024;-72
2022/11/01 12:46:40;;;;;;;5.18;1.75;;;18.20;83.90;;;;;;7606980;19;20126;-72
2022/11/01 12:49:36;;;;;;;4.03;1.65;;;18.20;83.90;;;;;;7603019;19;20014;-72
2022/11/01 12:52:21;;;;;;;6.70;1.58;;;18.00;83.70;;;;;;7612710;19;20019;-72
2022/11/01 12:55:11;;;;;;;3.40;1.67;;;17.90;82.50;;;;;;7609945;19;21048;-72
2022/11/01 12:57:49;;;;;;;3.92;1.77;;;17.80;84.40;;;;;;7607976;19;20011;-72
2022/11/01 13:00:22;;;;;;;3.83;1.85;;;17.80;83.60;;;;;;7613986;19;20853;-71
2022/11/01 13:03:16;;;;;;;6.82;2.20;;;17.60;84.50;;;;;;7608922;19;20015;-72
2022/11/01 13:06:11;;;;;;;4.07;2.00;;;17.60;84.90;;;;;;7601458;19;20291;-71
2022/11/01 13:09:05;;;;;;;7.65;2.10;;;17.50;85.60;;;;;;7603571;19;20491;-72
2022/11/01 13:11:51;;;;;;;;;;;17.50;86.10;;;;;;7595119;19;20011;-72
2022/11/01 13:14:49;;;;;;;9.38;2.65;;;17.40;86.20;;;;;;7594325;19;20355;-71
2022/11/01 13:17:43;;;;;;;6.63;2.30;;;17.40;88.80;;;;;;7597685;19;20358;-72
2022/11/01 13:20:34;;;;;;;;;;;17.30;89.30;;;;;;7605073;19;20022;-72
2022/11/01 13:23:17;;;;;;;5.75;2.28;;;17.40;88.70;;;;;;7610793;19;19923;-71
2022/11/01 13:25:53;;;;;;;;;;;17.30;88.70;;;;;;7590467;19;20047;-71
2022/11/01 13:28:51;;;;;;;9.85;2.75;;;17.30;89.40;;;;;;7601593;19;19987;-72
2022/11/01 13:31:57;;;;;;;8.55;2.50;;;17.20;90.20;;;;;;7592780;19;20018;-72
2022/11/01 13:34:56;;;;;;;8.48;3.20;;;17.10;89.30;;;;;;7588268;19;20010;-72
2022/11/01 13:38:05;;;;;;;6.68;2.40;;;17.10;90.30;;;;;;7600109;19;20014;-72
2022/11/01 13:40:45;;;;;;;6.72;2.80;;;17.10;91.00;;;;;;7609155;19;20020;-72
2022/11/01 13:43:32;;;;;;;5.47;2.53;;;17.00;90.60;;;;;;7596306;19;20045;-72
2022/11/01 13:46:38;;;;;;;6.90;2.30;;;17.00;91.00;;;;;;7596994;19;20014;-72